イスタンブル の空港の天気 - METARとTAF

アタテュルク国際空港(イスタンブル) ( LTBA / IST ) - トルコ イスタンブル
飛行場実況気象(Metar)
観測時間07/20 13:50 EET (07/20 10:50 UTC)
風向・風速北北東 9m/s
視程10km以上
天気現象
なし
気温29℃
湿度55%
気圧1016hPa
METARLTBA 201050Z 03017KT CAVOK 29/19 Q1016 NOSIG RMK RWY17L 06016KT RWY05 01018KT RWY23 04015KT 010V080
過去の天気等 Google飛行場航空写真 Wunderground天気予報

過去48時間のMETAR

飛行場予報(TAF)
発表時間: 7/20 07:40 EET (7/20 04:40 UTC)
予報対象時間: 20日9時 EET ~ 21日15時 EET
風向・風速北東 4m/s
視程10km以上
なし
20日9時 EET ~ 20日11時 EET に徐々に
少しの雲 雲底高度 1070m
20日11時 EET ~ 20日14時 EET に徐々に
風向・風速北北東 8m/s 瞬間風速 14m/s
視程10km以上
なし
20日21時 EET ~ 20日23時 EET に徐々に
風向・風速北東 4m/s
21日6時 EET ~ 21日9時 EET に徐々に
少しの雲 雲底高度 1070m
21日10時 EET ~ 21日13時 EET に徐々に
風向・風速北北東 8m/s 瞬間風速 13m/s
TAF LTBA 200440Z 2006/2112 05007KT CAVOK
BECMG 2006/2008 FEW035
BECMG 2008/2011 03015G28KT CAVOK
BECMG 2018/2020 04008KT
BECMG 2103/2106 FEW035
BECMG 2107/2110 03015G25KT